Time;durP1;ratioP1;P1;durP2;ratioP2;P2;SDS_P1;SDS_P2;PMS_P1;PMS_P2;Temp;Humidity;BMP_temperature;BMP_pressure;BME280_temperature;BME280_humidity;BME280_pressure;Samples;Min_cycle;Max_cycle;Signal;HPM_P1;HPM_P2
2023/11/14 00:00:25;;;;;;;20.30;5.90;;;11.80;61.20;;;;;;5011434;28;20179;-68
2023/11/14 00:02:51;;;;;;;21.37;6.20;;;11.80;40.40;;;;;;5011182;28;20668;-68
2023/11/14 00:05:16;;;;;;;18.20;5.03;;;11.80;99.90;;;;;;5011547;28;20177;-69
2023/11/14 00:07:42;;;;;;;18.37;5.10;;;11.80;99.90;;;;;;5010844;28;20204;-69
2023/11/14 00:10:08;;;;;;;19.00;6.30;;;11.70;99.90;;;;;;5011338;28;20172;-69
2023/11/14 00:12:37;;;;;;;18.27;5.30;;;11.70;99.90;;;;;;5011126;28;20207;-69
2023/11/14 00:15:03;;;;;;;26.97;6.30;;;11.80;99.90;;;;;;5011346;28;20634;-69
2023/11/14 00:17:29;;;;;;;13.37;5.83;;;11.80;99.90;;;;;;5011235;28;20175;-69
2023/11/14 00:19:55;;;;;;;16.60;5.37;;;11.80;99.90;;;;;;5013943;28;20529;-68
2023/11/14 00:22:20;;;;;;;11.57;5.73;;;11.80;99.90;;;;;;5015303;28;20215;-69
2023/11/14 00:24:47;;;;;;;18.83;5.43;;;11.80;1.00;;;;;;5014715;28;20184;-69
2023/11/14 00:27:13;;;;;;;16.00;4.90;;;11.80;1.00;;;;;;5015204;28;20231;-69
2023/11/14 00:29:39;;;;;;;21.53;6.83;;;11.80;1.00;;;;;;5015255;28;20265;-68
2023/11/14 00:32:05;;;;;;;13.90;5.60;;;11.80;1.00;;;;;;5015220;28;20177;-69
2023/11/14 00:34:31;;;;;;;15.17;5.10;;;11.80;1.00;;;;;;5015130;28;20179;-68
2023/11/14 00:36:56;;;;;;;20.20;5.20;;;11.80;1.00;;;;;;5014681;28;20515;-69
2023/11/14 00:39:22;;;;;;;20.90;5.43;;;11.80;1.00;;;;;;5015842;28;20178;-68
2023/11/14 00:41:53;;;;;;;15.43;6.13;;;11.80;1.00;;;;;;5015506;28;20637;-68
2023/11/14 00:44:22;;;;;;;23.13;5.93;;;11.80;1.00;;;;;;5015208;28;20172;-68
2023/11/14 00:46:48;;;;;;;18.10;5.73;;;11.90;1.00;;;;;;5014464;28;20243;-68
2023/11/14 00:49:14;;;;;;;21.10;6.00;;;11.80;99.90;;;;;;5014680;28;20164;-68
2023/11/14 00:51:40;;;;;;;19.50;6.30;;;11.90;1.00;;;;;;5014769;28;20184;-68
2023/11/14 00:54:05;;;;;;;16.17;5.90;;;11.90;99.90;;;;;;5014895;28;20200;-68
2023/11/14 00:56:31;;;;;;;16.97;5.67;;;11.90;99.90;;;;;;5014777;28;20176;-68
2023/11/14 00:58:57;;;;;;;21.70;5.90;;;11.90;99.90;;;;;;5014408;28;20184;-67
2023/11/14 01:01:22;;;;;;;16.57;6.40;;;11.90;99.90;;;;;;5014588;28;20660;-68
2023/11/14 01:03:48;;;;;;;18.60;6.03;;;11.90;99.90;;;;;;5014474;28;20208;-68
2023/11/14 01:06:14;;;;;;;19.17;7.30;;;11.80;99.90;;;;;;5014683;28;20207;-68
2023/11/14 01:08:39;;;;;;;12.00;6.40;;;11.90;99.90;;;;;;5013987;28;20180;-69
2023/11/14 01:11:05;;;;;;;31.17;7.40;;;11.90;61.10;;;;;;5014576;28;20343;-68
2023/11/14 01:13:30;;;;;;;18.80;5.97;;;11.90;99.90;;;;;;5014534;28;20327;-68
2023/11/14 01:15:56;;;;;;;16.33;5.43;;;11.90;99.90;;;;;;5014355;28;20192;-68
2023/11/14 01:18:22;;;;;;;17.73;6.47;;;11.90;99.90;;;;;;5014183;28;20177;-67
2023/11/14 01:20:47;;;;;;;19.07;5.67;;;11.80;1.00;;;;;;5013990;28;20223;-68
2023/11/14 01:23:16;;;;;;;24.30;5.20;;;11.70;1.00;;;;;;5014220;28;20681;-68
2023/11/14 01:25:42;;;;;;;22.57;6.17;;;11.70;24.10;;;;;;5014125;28;20176;-67
2023/11/14 01:28:08;;;;;;;16.60;6.27;;;11.70;1.00;;;;;;5014315;28;20637;-67
2023/11/14 01:30:33;;;;;;;22.07;6.47;;;11.70;1.00;;;;;;5012363;28;20180;-69
2023/11/14 01:32:59;;;;;;;20.00;5.57;;;11.70;1.00;;;;;;5013908;28;20579;-68
2023/11/14 01:35:24;;;;;;;22.23;7.10;;;11.70;43.50;;;;;;5014165;28;20181;-70
2023/11/14 01:37:50;;;;;;;23.37;6.63;;;11.70;51.20;;;;;;5013780;28;20195;-68
2023/11/14 01:40:16;;;;;;;19.83;5.77;;;11.70;7.20;;;;;;5014122;28;20640;-68
2023/11/14 01:42:42;;;;;;;22.10;5.57;;;11.70;2.00;;;;;;5013564;28;20204;-68
2023/11/14 01:45:07;;;;;;;22.47;6.07;;;11.60;99.90;;;;;;5013935;28;20187;-68
2023/11/14 01:47:33;;;;;;;31.53;6.57;;;11.60;1.00;;;;;;5013741;28;20239;-69
2023/11/14 01:50:00;;;;;;;19.70;6.37;;;11.60;1.00;;;;;;5013764;28;20656;-67
2023/11/14 01:52:26;;;;;;;19.37;6.20;;;11.60;1.00;;;;;;5013765;28;20184;-69
2023/11/14 01:54:52;;;;;;;24.23;7.00;;;11.60;1.00;;;;;;5013576;28;20177;-68
2023/11/14 01:57:18;;;;;;;15.73;5.50;;;11.60;1.00;;;;;;5013361;28;20180;-68
2023/11/14 01:59:45;;;;;;;27.63;6.57;;;11.70;99.90;;;;;;5013464;28;20176;-68
2023/11/14 02:02:13;;;;;;;24.40;5.53;;;11.70;99.90;;;;;;5013647;28;20296;-69
2023/11/14 02:04:39;;;;;;;23.27;6.13;;;11.70;96.00;;;;;;5013209;28;20180;-68
2023/11/14 02:07:05;;;;;;;18.30;5.10;;;11.70;99.90;;;;;;5012788;28;20204;-68
2023/11/14 02:09:32;;;;;;;20.87;5.27;;;11.60;30.20;;;;;;5013146;28;20187;-68
2023/11/14 02:11:58;;;;;;;21.80;6.07;;;11.60;1.00;;;;;;5013052;28;20243;-68
2023/11/14 02:14:24;;;;;;;16.70;5.43;;;11.60;1.00;;;;;;5013584;28;20188;-68
2023/11/14 02:16:55;;;;;;;13.27;5.40;;;11.60;1.00;;;;;;5013149;28;20184;-67
2023/11/14 02:19:21;;;;;;;18.03;6.57;;;11.60;1.00;;;;;;5013435;28;20219;-68
2023/11/14 02:21:47;;;;;;;12.60;4.97;;;11.70;1.00;;;;;;5013178;28;20603;-68
2023/11/14 02:24:17;;;;;;;21.17;5.93;;;11.70;1.00;;;;;;5013187;28;20286;-69
2023/11/14 02:26:47;;;;;;;15.67;5.30;;;11.60;1.00;;;;;;5012606;28;20204;-69
2023/11/14 02:29:17;;;;;;;16.50;6.40;;;11.60;1.00;;;;;;5013174;28;20172;-68
2023/11/14 02:31:43;;;;;;;14.27;5.20;;;11.60;1.00;;;;;;5012603;28;20274;-68
2023/11/14 02:34:10;;;;;;;18.87;4.97;;;11.60;1.00;;;;;;5012655;28;20283;-69
2023/11/14 02:36:40;;;;;;;18.03;5.30;;;11.60;99.90;;;;;;5012297;28;20204;-67
2023/11/14 02:39:06;;;;;;;19.67;6.10;;;11.60;99.90;;;;;;5012586;28;20542;-67
2023/11/14 02:41:31;;;;;;;23.00;6.60;;;11.60;99.90;;;;;;5012375;28;20215;-68
2023/11/14 02:43:58;;;;;;;23.13;5.03;;;11.60;1.00;;;;;;5012533;28;20681;-68
2023/11/14 02:46:24;;;;;;;15.50;5.20;;;11.60;1.00;;;;;;5012565;28;20248;-68
2023/11/14 02:48:49;;;;;;;20.07;6.53;;;11.50;1.00;;;;;;5011826;28;20216;-69
2023/11/14 02:51:15;;;;;;;21.03;6.50;;;11.50;57.00;;;;;;5012610;28;20184;-68
2023/11/14 02:53:41;;;;;;;18.83;5.77;;;11.60;1.00;;;;;;5012247;28;20196;-68
2023/11/14 02:56:07;;;;;;;12.87;5.17;;;11.50;1.00;;;;;;5012498;28;20183;-68
2023/11/14 02:58:32;;;;;;;19.47;6.70;;;11.60;1.00;;;;;;5011969;28;20177;-69
2023/11/14 03:00:58;;;;;;;20.43;5.87;;;11.60;1.00;;;;;;5012055;28;20203;-68
2023/11/14 03:03:24;;;;;;;19.47;6.43;;;11.60;1.00;;;;;;5012003;28;20204;-68
2023/11/14 03:05:49;;;;;;;22.23;4.87;;;11.60;99.90;;;;;;5012058;28;20199;-69
2023/11/14 03:08:15;;;;;;;24.60;6.10;;;11.60;99.90;;;;;;5012064;28;20693;-68
2023/11/14 03:10:42;;;;;;;21.13;5.67;;;11.60;1.00;;;;;;5012260;28;20230;-69
2023/11/14 03:13:08;;;;;;;14.53;5.33;;;11.60;1.00;;;;;;5012304;28;20698;-68
2023/11/14 03:15:35;;;;;;;15.17;6.03;;;11.50;99.90;;;;;;5012456;28;20183;-68
2023/11/14 03:18:00;;;;;;;15.13;6.67;;;11.50;99.90;;;;;;5012161;28;20267;-68
2023/11/14 03:20:27;;;;;;;19.70;6.73;;;11.40;99.90;;;;;;5012087;28;20665;-68
2023/11/14 03:22:54;;;;;;;19.47;5.90;;;11.40;99.90;;;;;;5011936;28;20199;-68
2023/11/14 03:25:21;;;;;;;21.43;6.60;;;11.50;99.90;;;;;;5012689;28;20187;-68
2023/11/14 03:27:47;;;;;;;17.93;6.10;;;11.40;1.00;;;;;;5011802;28;20199;-68
2023/11/14 03:30:13;;;;;;;17.60;6.13;;;11.40;1.00;;;;;;5012193;28;20264;-68
2023/11/14 03:32:39;;;;;;;20.23;5.43;;;11.40;1.00;;;;;;5011697;28;20192;-68
2023/11/14 03:35:06;;;;;;;27.37;7.53;;;11.40;1.00;;;;;;5012128;28;20180;-68
2023/11/14 03:37:32;;;;;;;23.23;6.07;;;11.40;1.00;;;;;;5011834;28;20184;-69
2023/11/14 03:39:58;;;;;;;19.83;7.07;;;11.40;99.90;;;;;;5011658;28;20268;-68
2023/11/14 03:42:23;;;;;;;24.43;6.33;;;11.40;99.90;;;;;;5011959;28;20232;-69
2023/11/14 03:44:49;;;;;;;23.73;6.20;;;11.40;99.90;;;;;;5011688;28;20184;-68
2023/11/14 03:47:15;;;;;;;12.37;5.70;;;11.40;99.90;;;;;;5011683;28;20212;-69
2023/11/14 03:49:41;;;;;;;24.20;6.40;;;11.40;99.90;;;;;;5011838;28;20174;-69
2023/11/14 03:52:07;;;;;;;16.73;5.47;;;11.50;1.00;;;;;;5011835;28;20176;-69
2023/11/14 03:54:33;;;;;;;16.80;5.57;;;11.50;1.00;;;;;;5010948;28;20685;-67
2023/11/14 03:56:59;;;;;;;18.00;5.77;;;11.50;99.90;;;;;;5011465;28;20176;-68
2023/11/14 03:59:25;;;;;;;14.10;5.20;;;11.60;1.00;;;;;;5011826;28;20549;-68
2023/11/14 04:01:50;;;;;;;15.23;5.40;;;11.50;18.00;;;;;;5011523;28;20602;-68
2023/11/14 04:04:16;;;;;;;23.83;6.33;;;11.60;99.90;;;;;;5011660;28;20290;-68
2023/11/14 04:06:42;;;;;;;16.93;6.40;;;11.50;99.90;;;;;;5011142;28;20294;-69
2023/11/14 04:09:10;;;;;;;12.53;5.97;;;11.60;99.90;;;;;;5011467;28;20188;-69
2023/11/14 04:11:48;;;;;;;18.27;5.67;;;11.70;99.90;;;;;;5011638;28;20175;-69
2023/11/14 04:14:14;;;;;;;13.33;6.03;;;11.70;99.90;;;;;;5011490;28;20214;-68
2023/11/14 04:16:40;;;;;;;18.70;5.00;;;11.70;99.90;;;;;;5011371;28;20238;-68
2023/11/14 04:19:06;;;;;;;17.00;5.60;;;11.70;99.90;;;;;;5011214;28;20184;-68
2023/11/14 04:21:32;;;;;;;13.47;5.00;;;11.70;99.90;;;;;;5011368;28;20236;-68
2023/11/14 04:23:57;;;;;;;16.87;5.73;;;11.70;99.90;;;;;;5011177;28;20727;-68
2023/11/14 04:26:23;;;;;;;14.07;5.13;;;11.70;99.90;;;;;;5011469;28;20218;-68
2023/11/14 04:28:49;;;;;;;19.97;5.77;;;11.70;99.90;;;;;;5010797;28;20199;-68
2023/11/14 04:31:16;;;;;;;17.30;6.13;;;11.70;99.90;;;;;;5011483;28;20543;-68
2023/11/14 04:33:41;;;;;;;18.93;5.27;;;11.70;99.90;;;;;;5011273;28;20196;-68
2023/11/14 04:36:08;;;;;;;18.23;4.63;;;11.70;99.90;;;;;;5011407;28;20176;-69
2023/11/14 04:38:34;;;;;;;19.13;5.30;;;11.80;99.90;;;;;;5011106;28;20180;-68
2023/11/14 04:41:00;;;;;;;18.13;5.27;;;11.80;99.90;;;;;;5011161;28;20617;-68
2023/11/14 04:43:25;;;;;;;15.73;4.80;;;11.90;99.90;;;;;;5011551;28;20204;-68
2023/11/14 04:45:51;;;;;;;19.17;5.50;;;12.00;1.00;;;;;;5011149;28;20609;-68
2023/11/14 04:48:17;;;;;;;15.43;4.80;;;12.00;1.00;;;;;;5011137;28;20169;-68
2023/11/14 04:50:42;;;;;;;17.47;5.33;;;11.90;1.00;;;;;;5011206;28;20200;-68
2023/11/14 04:53:08;;;;;;;17.87;5.93;;;11.90;1.00;;;;;;5011075;28;20212;-69
2023/11/14 04:55:34;;;;;;;16.73;4.80;;;11.90;1.00;;;;;;5011218;28;20697;-68
2023/11/14 04:58:00;;;;;;;14.80;5.23;;;11.90;1.00;;;;;;5010671;28;20176;-68
2023/11/14 05:00:25;;;;;;;12.93;5.37;;;11.90;1.00;;;;;;5011181;28;20181;-68
2023/11/14 05:02:51;;;;;;;14.33;5.73;;;11.90;1.00;;;;;;5010844;28;20200;-67
2023/11/14 05:05:18;;;;;;;12.97;5.40;;;11.90;1.00;;;;;;5013162;28;20211;-69
2023/11/14 05:07:44;;;;;;;15.07;7.47;;;11.90;99.90;;;;;;5014618;28;20239;-68
2023/11/14 05:10:10;;;;;;;23.27;5.83;;;11.90;99.90;;;;;;5014744;28;20601;-68
2023/11/14 05:12:36;;;;;;;16.47;5.30;;;12.00;99.90;;;;;;5014180;28;20230;-69
2023/11/14 05:15:02;;;;;;;13.67;6.07;;;12.00;1.00;;;;;;5014340;28;20630;-68
2023/11/14 05:17:28;;;;;;;13.33;5.23;;;12.10;4.00;;;;;;5014401;28;20623;-68
2023/11/14 05:19:57;;;;;;;21.53;5.67;;;12.10;1.00;;;;;;5014379;28;20295;-68
2023/11/14 05:22:22;;;;;;;12.90;4.83;;;12.10;1.00;;;;;;5014505;28;20200;-68
2023/11/14 05:24:48;;;;;;;21.47;5.53;;;12.10;1.00;;;;;;5014171;28;20172;-68
2023/11/14 05:27:13;;;;;;;15.87;5.63;;;12.10;1.00;;;;;;5014039;28;20262;-68
2023/11/14 05:29:39;;;;;;;16.00;5.13;;;12.10;44.70;;;;;;5014144;28;20204;-69
2023/11/14 05:32:05;;;;;;;18.67;5.37;;;12.00;32.00;;;;;;5014659;28;20250;-68
2023/11/14 05:34:31;;;;;;;17.97;5.33;;;12.00;99.90;;;;;;5013967;28;20263;-68
2023/11/14 05:36:56;;;;;;;15.93;6.00;;;12.00;99.90;;;;;;5014078;28;20226;-68
2023/11/14 05:39:22;;;;;;;22.30;6.10;;;12.00;99.90;;;;;;5014080;28;20184;-68
2023/11/14 05:41:47;;;;;;;21.17;6.20;;;12.00;99.90;;;;;;5014152;28;20250;-68
2023/11/14 05:44:14;;;;;;;22.43;5.80;;;12.00;1.00;;;;;;5013938;28;20200;-68
2023/11/14 05:46:40;;;;;;;14.50;5.40;;;12.00;1.00;;;;;;5013815;28;20222;-68
2023/11/14 05:49:06;;;;;;;15.40;6.00;;;12.10;99.90;;;;;;5013613;28;20184;-68
2023/11/14 05:51:32;;;;;;;14.37;4.97;;;12.10;99.90;;;;;;5013032;28;20626;-68
2023/11/14 05:53:58;;;;;;;15.73;5.20;;;12.10;99.90;;;;;;5013110;28;20249;-68
2023/11/14 05:56:23;;;;;;;16.07;5.23;;;12.10;1.00;;;;;;5013173;28;20652;-68
2023/11/14 05:58:49;;;;;;;18.30;5.70;;;12.10;1.00;;;;;;5013299;28;20176;-68
2023/11/14 06:01:14;;;;;;;18.53;6.03;;;12.20;1.00;;;;;;5013887;28;20172;-68
2023/11/14 06:03:40;;;;;;;14.50;5.37;;;12.20;1.00;;;;;;5013612;28;20372;-67
2023/11/14 06:06:06;;;;;;;15.80;5.60;;;12.10;1.00;;;;;;5013744;28;20200;-67
2023/11/14 06:08:32;;;;;;;16.00;5.30;;;12.10;1.00;;;;;;5013579;28;20191;-69
2023/11/14 06:10:57;;;;;;;17.37;5.07;;;12.00;1.00;;;;;;5013218;28;20716;-69
2023/11/14 06:13:23;;;;;;;23.17;6.63;;;12.00;23.80;;;;;;5013515;28;20208;-70
2023/11/14 06:15:49;;;;;;;14.80;5.63;;;11.90;99.90;;;;;;5012938;28;20203;-68
2023/11/14 06:18:14;;;;;;;18.93;5.03;;;12.00;99.90;;;;;;5013258;28;20638;-69
2023/11/14 06:20:42;;;;;;;21.23;6.93;;;11.90;99.90;;;;;;5013061;28;20234;-68
2023/11/14 06:23:08;;;;;;;13.00;4.67;;;11.90;99.90;;;;;;5013337;28;20200;-68
2023/11/14 06:25:33;;;;;;;18.97;6.10;;;11.90;99.90;;;;;;5013205;28;20222;-69
2023/11/14 06:27:59;;;;;;;22.73;7.33;;;11.80;99.90;;;;;;5012613;28;20208;-68
2023/11/14 06:30:25;;;;;;;14.43;5.30;;;11.80;1.00;;;;;;5013118;28;20179;-68
2023/11/14 06:32:51;;;;;;;18.90;5.80;;;11.80;1.00;;;;;;5012974;28;20196;-68
2023/11/14 06:35:16;;;;;;;18.97;6.10;;;11.80;1.00;;;;;;5013299;28;20172;-68
2023/11/14 06:37:44;;;;;;;22.57;6.27;;;11.80;1.00;;;;;;5013137;28;20183;-67
2023/11/14 06:40:10;;;;;;;22.00;6.30;;;11.80;53.00;;;;;;5012935;28;20176;-68
2023/11/14 06:42:36;;;;;;;22.77;6.53;;;11.80;78.70;;;;;;5012324;28;20211;-69
2023/11/14 06:45:02;;;;;;;16.67;6.03;;;11.90;1.00;;;;;;5012931;28;20181;-69
2023/11/14 06:47:28;;;;;;;18.17;6.10;;;11.90;1.00;;;;;;5012527;28;20210;-69
2023/11/14 06:49:53;;;;;;;25.83;5.80;;;11.90;99.90;;;;;;5011672;28;20682;-69
2023/11/14 06:52:19;;;;;;;15.37;5.80;;;12.00;1.00;;;;;;5012531;28;20196;-68
2023/11/14 06:54:45;;;;;;;25.50;6.17;;;12.00;1.00;;;;;;5012205;28;20172;-69
2023/11/14 06:57:10;;;;;;;18.10;5.80;;;12.10;99.90;;;;;;5012361;28;20184;-69
2023/11/14 06:59:36;;;;;;;18.70;5.80;;;12.10;99.90;;;;;;5012572;28;20657;-69
2023/11/14 07:02:05;;;;;;;22.80;5.77;;;12.00;99.90;;;;;;5012414;28;20204;-68
2023/11/14 07:04:33;;;;;;;14.83;5.40;;;12.00;99.90;;;;;;5012384;28;20251;-68
2023/11/14 07:06:59;;;;;;;17.43;5.30;;;12.00;99.90;;;;;;5011527;28;20283;-68
2023/11/14 07:09:25;;;;;;;16.13;5.63;;;12.00;1.00;;;;;;5017530;28;20241;-68
2023/11/14 07:11:53;;;;;;;17.10;5.13;;;12.00;1.00;;;;;;5031958;28;20632;-68
2023/11/14 07:14:21;;;;;;;18.13;5.50;;;12.10;1.00;;;;;;5032551;28;20677;-68
2023/11/14 07:16:47;;;;;;;17.73;6.40;;;12.10;99.90;;;;;;5030306;28;20179;-69
2023/11/14 07:19:13;;;;;;;16.67;5.70;;;12.20;1.00;;;;;;5011900;28;20226;-69
2023/11/14 07:21:38;;;;;;;20.70;6.20;;;12.20;1.00;;;;;;5012160;28;20180;-69
2023/11/14 07:24:04;;;;;;;17.00;6.03;;;12.20;1.00;;;;;;5012001;28;20747;-69
2023/11/14 07:26:30;;;;;;;24.33;5.90;;;12.30;99.90;;;;;;5011868;28;20204;-68
2023/11/14 07:28:56;;;;;;;19.83;6.00;;;12.30;1.00;;;;;;5011374;28;20184;-68
2023/11/14 07:31:21;;;;;;;26.53;6.40;;;12.40;1.00;;;;;;5012151;28;20172;-68
2023/11/14 07:33:47;;;;;;;19.03;6.00;;;12.30;1.00;;;;;;5011742;28;20254;-69
2023/11/14 07:36:12;;;;;;;13.90;5.53;;;12.30;1.00;;;;;;5011307;28;20195;-68
2023/11/14 07:38:38;;;;;;;19.03;5.47;;;12.30;99.90;;;;;;5011279;28;20184;-68
2023/11/14 07:41:10;;;;;;;21.30;5.63;;;12.30;99.90;;;;;;5011428;28;20180;-69
2023/11/14 07:43:38;;;;;;;19.00;5.00;;;12.30;99.90;;;;;;5011317;28;20603;-68
2023/11/14 07:46:05;;;;;;;15.13;5.30;;;12.30;99.90;;;;;;5011135;28;20211;-69
2023/11/14 07:48:31;;;;;;;15.43;5.10;;;12.30;99.90;;;;;;5011035;28;20192;-68
2023/11/14 07:50:57;;;;;;;19.53;6.30;;;12.40;1.00;;;;;;5011657;28;20575;-69
2023/11/14 07:53:24;;;;;;;20.33;5.67;;;12.40;1.00;;;;;;5011776;28;20339;-70
2023/11/14 07:55:49;;;;;;;23.77;6.43;;;12.50;1.00;;;;;;5011356;28;20207;-69
2023/11/14 07:58:15;;;;;;;15.57;6.00;;;12.50;1.00;;;;;;5010688;28;20176;-69
2023/11/14 08:00:41;;;;;;;15.40;5.93;;;12.50;99.90;;;;;;5011402;28;20246;-70
2023/11/14 08:03:07;;;;;;;15.63;5.40;;;12.60;99.90;;;;;;5011084;28;20287;-69
2023/11/14 08:05:33;;;;;;;16.53;4.87;;;12.70;99.90;;;;;;5011450;28;20172;-68
2023/11/14 08:07:59;;;;;;;22.20;5.07;;;12.70;99.90;;;;;;5011071;28;20754;-67
2023/11/14 08:10:24;;;;;;;19.37;5.43;;;12.70;99.90;;;;;;5011411;28;20211;-68
2023/11/14 08:12:50;;;;;;;16.63;4.90;;;12.80;1.00;;;;;;5010948;28;20243;-69
2023/11/14 08:15:16;;;;;;;15.67;6.03;;;13.00;1.00;;;;;;5011232;28;20691;-68
2023/11/14 08:17:42;;;;;;;16.70;5.27;;;13.10;1.00;;;;;;5010666;28;20186;-69
2023/11/14 08:20:10;;;;;;;13.50;4.60;;;13.20;1.00;;;;;;5011203;28;20178;-68
2023/11/14 08:22:35;;;;;;;18.67;5.23;;;13.30;99.90;;;;;;5011191;28;20195;-69
2023/11/14 08:25:01;;;;;;;15.20;5.07;;;13.40;99.90;;;;;;5028792;28;20190;-68
2023/11/14 08:27:27;;;;;;;12.63;4.83;;;13.50;99.90;;;;;;5030611;28;20253;-68
2023/11/14 08:29:53;;;;;;;18.67;5.20;;;13.50;99.90;;;;;;5030369;28;20218;-69
2023/11/14 08:32:19;;;;;;;17.27;5.00;;;13.50;99.90;;;;;;5024704;28;20195;-69
2023/11/14 08:34:44;;;;;;;8.77;4.10;;;13.50;99.90;;;;;;5011031;28;20633;-69
2023/11/14 08:37:10;;;;;;;13.60;4.70;;;13.40;99.90;;;;;;5010767;28;20176;-68
2023/11/14 08:39:36;;;;;;;14.17;4.97;;;13.40;99.90;;;;;;5011526;28;20180;-68
2023/11/14 08:42:02;;;;;;;16.43;5.00;;;13.30;99.90;;;;;;5014601;28;20171;-68
2023/11/14 08:44:27;;;;;;;19.47;4.90;;;13.20;99.90;;;;;;5014409;28;20239;-69
2023/11/14 08:46:53;;;;;;;14.60;4.80;;;13.20;1.00;;;;;;5013732;28;20469;-69
2023/11/14 08:49:20;;;;;;;16.80;4.93;;;13.20;1.00;;;;;;5014644;28;20278;-70
2023/11/14 08:51:46;;;;;;;13.67;5.20;;;13.20;1.00;;;;;;5014877;28;20168;-69
2023/11/14 08:54:11;;;;;;;11.90;5.10;;;13.20;1.00;;;;;;5014750;28;20191;-69
2023/11/14 08:56:37;;;;;;;15.03;5.90;;;13.30;1.00;;;;;;5014567;28;20259;-68
2023/11/14 08:59:03;;;;;;;13.80;5.10;;;13.20;1.00;;;;;;5014517;28;20176;-69
2023/11/14 09:01:28;;;;;;;15.80;5.60;;;13.20;1.00;;;;;;5014449;28;20180;-69
2023/11/14 09:03:54;;;;;;;13.00;4.73;;;13.00;99.90;;;;;;5014753;28;20204;-69
2023/11/14 09:06:20;;;;;;;13.80;5.33;;;12.70;1.00;;;;;;5014648;28;20594;-70
2023/11/14 09:08:45;;;;;;;22.37;6.10;;;12.40;8.70;;;;;;5014463;28;20168;-69
2023/11/14 09:11:11;;;;;;;21.33;6.50;;;12.30;99.90;;;;;;5014256;28;20172;-68
2023/11/14 09:13:37;;;;;;;16.67;5.40;;;12.20;99.90;;;;;;5013920;28;20216;-68
2023/11/14 09:16:03;;;;;;;14.67;4.93;;;12.30;99.90;;;;;;5013926;28;20264;-68
2023/11/14 09:18:29;;;;;;;17.67;5.97;;;12.30;99.90;;;;;;5014119;28;20172;-70
2023/11/14 09:20:55;;;;;;;13.50;4.83;;;12.30;53.00;;;;;;5013868;28;20251;-69
2023/11/14 09:23:21;;;;;;;16.63;5.17;;;12.40;1.00;;;;;;5013975;28;20192;-68
2023/11/14 09:25:47;;;;;;;17.80;5.50;;;12.50;1.00;;;;;;5013486;28;20172;-70
2023/11/14 09:28:14;;;;;;;24.17;6.33;;;12.50;1.00;;;;;;5013127;28;20191;-70
2023/11/14 09:30:39;;;;;;;26.73;7.03;;;12.60;1.00;;;;;;5013852;28;20184;-69
2023/11/14 09:33:05;;;;;;;16.33;5.83;;;12.70;99.90;;;;;;5013791;28;20192;-69
2023/11/14 09:35:31;;;;;;;20.63;5.17;;;12.80;1.00;;;;;;5013961;28;20195;-68
2023/11/14 09:37:56;;;;;;;17.00;5.13;;;13.00;1.00;;;;;;5013415;28;20226;-69
2023/11/14 09:40:24;;;;;;;19.10;5.23;;;13.10;94.90;;;;;;5013978;28;20195;-69
2023/11/14 09:42:51;;;;;;;15.17;4.57;;;13.20;1.00;;;;;;5013916;28;20242;-69
2023/11/14 09:45:20;;;;;;;13.40;4.60;;;13.30;99.90;;;;;;5013861;28;20200;-69
2023/11/14 09:47:46;;;;;;;10.77;4.60;;;13.30;99.90;;;;;;5013604;28;20575;-69
2023/11/14 09:50:12;;;;;;;13.70;5.13;;;13.40;99.90;;;;;;5013983;28;20251;-69
2023/11/14 09:52:38;;;;;;;11.93;4.60;;;13.40;99.90;;;;;;5013103;28;20543;-69
2023/11/14 09:55:05;;;;;;;11.73;5.40;;;13.50;23.60;;;;;;5013592;28;20175;-69
2023/11/14 09:57:33;;;;;;;14.13;4.97;;;13.50;1.00;;;;;;5013664;28;20192;-69
2023/11/14 10:00:01;;;;;;;13.93;3.97;;;13.40;1.00;;;;;;5013392;28;20179;-69
2023/11/14 10:02:27;;;;;;;15.00;5.63;;;13.40;99.90;;;;;;5013619;28;20271;-69
2023/11/14 10:04:52;;;;;;;19.27;5.60;;;13.40;99.90;;;;;;5013639;28;20203;-69
2023/11/14 10:07:20;;;;;;;14.80;5.07;;;13.40;99.90;;;;;;5013248;28;20570;-69
2023/11/14 10:09:47;;;;;;;19.63;5.33;;;13.40;99.90;;;;;;5013018;28;20171;-68
2023/11/14 10:12:31;;;;;;;8.73;4.33;;;13.40;99.90;;;;;;5013212;28;20241;-69
2023/11/14 10:14:57;;;;;;;10.10;3.93;;;13.40;99.90;;;;;;5013564;28;20179;-69
2023/11/14 10:17:26;;;;;;;13.40;4.57;;;13.40;98.60;;;;;;5013259;28;20172;-69
2023/11/14 10:20:00;;;;;;;13.67;4.40;;;13.50;1.00;;;;;;5013227;28;20183;-69
2023/11/14 10:22:27;;;;;;;11.97;4.90;;;13.50;1.00;;;;;;5011864;28;20247;-69
2023/11/14 10:24:53;;;;;;;16.13;5.20;;;13.50;1.00;;;;;;5012886;28;20559;-69
2023/11/14 10:27:29;;;;;;;13.07;4.90;;;13.60;1.00;;;;;;5012735;28;20253;-69
2023/11/14 10:29:55;;;;;;;14.53;4.60;;;13.60;1.00;;;;;;5013102;28;20180;-70
2023/11/14 10:32:24;;;;;;;12.57;4.57;;;13.60;1.00;;;;;;4994761;28;20337;-69
2023/11/14 10:34:51;;;;;;;11.80;4.17;;;13.70;1.00;;;;;;5012733;28;20183;-68
2023/11/14 10:37:33;;;;;;;10.43;5.17;;;13.70;1.00;;;;;;5012563;28;20230;-70
2023/11/14 10:40:05;;;;;;;12.63;4.60;;;13.60;1.00;;;;;;5012961;28;20176;-69
2023/11/14 10:42:31;;;;;;;10.07;4.53;;;13.60;1.00;;;;;;5012885;28;20214;-69
2023/11/14 10:45:08;;;;;;;12.63;4.80;;;13.60;1.00;;;;;;5012761;28;20259;-70
2023/11/14 10:47:42;;;;;;;12.50;4.33;;;13.50;84.40;;;;;;5012308;28;20687;-70
2023/11/14 10:50:29;;;;;;;13.40;5.33;;;13.40;1.00;;;;;;5012562;28;20188;-70
2023/11/14 10:52:56;;;;;;;13.47;4.40;;;13.20;99.90;;;;;;5012424;28;20251;-68
2023/11/14 10:55:23;;;;;;;17.53;5.20;;;13.00;29.20;;;;;;5012363;28;20260;-70
2023/11/14 10:57:52;;;;;;;11.07;5.07;;;12.90;99.90;;;;;;5012245;28;20180;-69
2023/11/14 11:00:22;;;;;;;9.83;4.07;;;12.80;1.00;;;;;;5012367;28;20187;-70
2023/11/14 11:02:52;;;;;;;14.43;5.13;;;12.80;1.00;;;;;;5011819;28;20199;-69
2023/11/14 11:05:20;;;;;;;18.53;5.13;;;12.90;1.00;;;;;;5012337;28;20180;-69
2023/11/14 11:07:48;;;;;;;14.37;4.77;;;12.90;1.00;;;;;;5011953;28;20204;-70
2023/11/14 11:10:16;;;;;;;11.83;4.87;;;12.90;1.00;;;;;;5012518;28;20218;-69
2023/11/14 11:12:44;;;;;;;15.27;4.70;;;13.00;99.90;;;;;;5012026;28;20560;-69
2023/11/14 11:15:10;;;;;;;15.63;5.23;;;13.20;99.90;;;;;;5011940;28;20184;-70
2023/11/14 11:17:38;;;;;;;14.57;5.50;;;13.30;1.00;;;;;;5011919;28;20645;-70
2023/11/14 11:20:06;;;;;;;11.70;5.00;;;13.60;99.90;;;;;;5012236;28;20179;-69
2023/11/14 11:23:04;;;;;;;8.23;4.20;;;14.00;1.00;;;;;;5012501;28;20246;-70
2023/11/14 11:25:31;;;;;;;11.33;4.80;;;14.20;1.00;;;;;;5011856;28;20176;-70
2023/11/14 11:27:58;;;;;;;9.83;5.03;;;14.20;1.00;;;;;;5011639;28;20211;-69
2023/11/14 11:30:24;;;;;;;11.87;4.73;;;14.10;99.90;;;;;;5012493;28;20168;-69
2023/11/14 11:32:55;;;;;;;9.43;4.93;;;13.80;99.90;;;;;;5011807;28;20184;-70
2023/11/14 11:35:25;;;;;;;14.93;4.90;;;13.70;99.90;;;;;;5011613;28;20689;-69
2023/11/14 11:37:53;;;;;;;12.73;4.87;;;13.50;1.00;;;;;;5008717;28;20214;-70
2023/11/14 11:40:24;;;;;;;10.33;4.40;;;13.40;29.10;;;;;;5010823;28;20179;-69
2023/11/14 11:42:50;;;;;;;10.30;3.90;;;13.40;99.90;;;;;;5010610;28;20283;-69
2023/11/14 11:45:27;;;;;;;16.63;6.27;;;13.50;89.70;;;;;;5010825;28;20283;-69
2023/11/14 11:47:57;;;;;;;11.27;4.83;;;13.50;1.00;;;;;;5010461;28;20348;-70
2023/11/14 11:50:31;;;;;;;7.27;3.70;;;13.40;1.00;;;;;;5011332;28;20171;-70
2023/11/14 11:52:59;;;;;;;7.50;5.00;;;13.40;99.90;;;;;;4993798;28;20225;-70
2023/11/14 11:55:25;;;;;;;10.67;3.93;;;13.10;1.00;;;;;;5011077;28;20191;-69
2023/11/14 11:57:59;;;;;;;12.93;3.97;;;12.80;99.90;;;;;;5011057;28;20176;-69
2023/11/14 12:00:24;;;;;;;6.90;3.70;;;12.40;1.00;;;;;;5011195;28;20695;-70
2023/11/14 12:02:51;;;;;;;7.57;3.60;;;12.10;99.90;;;;;;5011088;28;20196;-69
2023/11/14 12:05:17;;;;;;;5.17;3.60;;;11.80;1.00;;;;;;5011222;28;20622;-69
2023/11/14 12:07:44;;;;;;;9.57;4.13;;;11.80;1.00;;;;;;5010864;28;20235;-70
2023/11/14 12:10:11;;;;;;;13.07;4.53;;;11.90;12.20;;;;;;5011652;28;20535;-69
2023/11/14 12:12:37;;;;;;;11.70;4.70;;;11.90;99.90;;;;;;5011063;28;20231;-70
2023/11/14 12:15:05;;;;;;;13.70;4.60;;;12.00;99.90;;;;;;5010386;28;20172;-69
2023/11/14 12:17:32;;;;;;;9.87;4.47;;;12.00;99.90;;;;;;5010984;28;20180;-69
2023/11/14 12:20:00;;;;;;;13.10;5.00;;;12.00;99.90;;;;;;5010908;28;20180;-69
2023/11/14 12:22:29;;;;;;;10.87;4.27;;;12.00;99.90;;;;;;5011584;28;20484;-70
2023/11/14 12:24:56;;;;;;;14.13;4.37;;;12.00;99.90;;;;;;5010910;28;20175;-69
2023/11/14 12:27:21;;;;;;;12.60;4.47;;;11.90;99.90;;;;;;5010735;28;20208;-69
2023/11/14 12:29:47;;;;;;;15.53;4.83;;;11.90;99.90;;;;;;5010855;28;20600;-69
2023/11/14 12:32:12;;;;;;;13.07;4.63;;;11.80;99.90;;;;;;5011001;28;20223;-68
2023/11/14 12:34:38;;;;;;;13.17;4.67;;;11.80;99.90;;;;;;5011294;28;20704;-69
2023/11/14 12:37:17;;;;;;;13.83;5.57;;;11.80;99.90;;;;;;5011073;28;20175;-69
2023/11/14 12:40:01;;;;;;;14.07;5.13;;;11.80;99.90;;;;;;5011300;28;20172;-69